sensor_id;sensor_type;location;lat;lon;timestamp;pressure;altitude;pressure_sealevel;temperature;humidity
6851;BME280;3464;42.728;23.296;2022-11-20T00:00:33;94532.43;;;22.17;57.16
6851;BME280;3464;42.728;23.296;2022-11-20T00:02:59;94545.33;;;21.97;57.30
6851;BME280;3464;42.728;23.296;2022-11-20T00:05:26;94531.86;;;22.02;57.67
6851;BME280;3464;42.728;23.296;2022-11-20T00:07:52;94549.36;;;22.46;56.61
6851;BME280;3464;42.728;23.296;2022-11-20T00:10:19;94527.30;;;22.43;55.98
6851;BME280;3464;42.728;23.296;2022-11-20T00:12:46;94532.70;;;22.02;55.51
6851;BME280;3464;42.728;23.296;2022-11-20T00:15:12;94532.45;;;22.60;54.64
6851;BME280;3464;42.728;23.296;2022-11-20T00:17:39;94516.31;;;22.67;53.58
6851;BME280;3464;42.728;23.296;2022-11-20T00:20:06;94515.98;;;23.23;52.77
6851;BME280;3464;42.728;23.296;2022-11-20T00:22:32;94506.45;;;23.80;50.85
6851;BME280;3464;42.728;23.296;2022-11-20T00:24:59;94535.73;;;23.13;52.22
6851;BME280;3464;42.728;23.296;2022-11-20T00:27:26;94523.39;;;23.37;51.34
6851;BME280;3464;42.728;23.296;2022-11-20T00:29:52;94519.13;;;23.84;50.54
6851;BME280;3464;42.728;23.296;2022-11-20T00:32:19;94509.61;;;23.77;50.20
6851;BME280;3464;42.728;23.296;2022-11-20T00:34:45;94514.70;;;23.63;50.40
6851;BME280;3464;42.728;23.296;2022-11-20T00:37:12;94528.59;;;23.90;49.96
6851;BME280;3464;42.728;23.296;2022-11-20T00:39:38;94508.63;;;23.72;49.83
6851;BME280;3464;42.728;23.296;2022-11-20T00:42:05;94508.22;;;23.56;49.94
6851;BME280;3464;42.728;23.296;2022-11-20T00:44:31;94512.93;;;23.96;49.31
6851;BME280;3464;42.728;23.296;2022-11-20T00:46:58;94518.16;;;23.94;49.39
6851;BME280;3464;42.728;23.296;2022-11-20T00:49:25;94511.55;;;24.20;48.80
6851;BME280;3464;42.728;23.296;2022-11-20T00:51:51;94514.55;;;23.98;48.79
6851;BME280;3464;42.728;23.296;2022-11-20T00:54:18;94524.47;;;23.72;49.31
6851;BME280;3464;42.728;23.296;2022-11-20T00:56:45;94514.92;;;23.82;49.32
6851;BME280;3464;42.728;23.296;2022-11-20T00:59:13;94507.30;;;23.57;50.18
6851;BME280;3464;42.728;23.296;2022-11-20T01:01:41;94499.20;;;23.49;50.62
6851;BME280;3464;42.728;23.296;2022-11-20T01:04:09;94502.08;;;23.82;50.45
6851;BME280;3464;42.728;23.296;2022-11-20T01:06:36;94495.57;;;24.15;49.38
6851;BME280;3464;42.728;23.296;2022-11-20T01:09:03;94505.24;;;23.95;49.93
6851;BME280;3464;42.728;23.296;2022-11-20T01:11:30;94495.62;;;24.21;49.28
6851;BME280;3464;42.728;23.296;2022-11-20T01:13:56;94495.80;;;24.03;49.61
6851;BME280;3464;42.728;23.296;2022-11-20T01:16:25;94490.00;;;23.76;50.00
6851;BME280;3464;42.728;23.296;2022-11-20T01:18:53;94478.88;;;24.14;49.33
6851;BME280;3464;42.728;23.296;2022-11-20T01:21:35;94497.34;;;24.36;49.09
6851;BME280;3464;42.728;23.296;2022-11-20T01:24:12;94486.77;;;24.11;49.09
6851;BME280;3464;42.728;23.296;2022-11-20T01:26:37;94494.81;;;23.82;49.85
6851;BME280;3464;42.728;23.296;2022-11-20T01:29:05;94489.48;;;23.85;48.94
6851;BME280;3464;42.728;23.296;2022-11-20T01:31:34;94476.06;;;24.48;47.85
6851;BME280;3464;42.728;23.296;2022-11-20T01:34:02;94482.50;;;24.55;47.47
6851;BME280;3464;42.728;23.296;2022-11-20T01:36:29;94472.72;;;24.24;47.31
6851;BME280;3464;42.728;23.296;2022-11-20T01:38:56;94474.31;;;24.27;47.21
6851;BME280;3464;42.728;23.296;2022-11-20T01:41:22;94458.67;;;24.45;47.03
6851;BME280;3464;42.728;23.296;2022-11-20T01:43:54;94453.33;;;24.48;47.14
6851;BME280;3464;42.728;23.296;2022-11-20T01:46:21;94472.12;;;24.35;46.99
6851;BME280;3464;42.728;23.296;2022-11-20T01:49:11;94474.25;;;24.28;47.10
6851;BME280;3464;42.728;23.296;2022-11-20T01:51:39;94454.66;;;25.05;46.26
6851;BME280;3464;42.728;23.296;2022-11-20T01:54:07;94467.05;;;24.71;47.04
6851;BME280;3464;42.728;23.296;2022-11-20T01:56:33;94475.91;;;25.16;46.07
6851;BME280;3464;42.728;23.296;2022-11-20T01:59:00;94469.39;;;24.67;46.79
6851;BME280;3464;42.728;23.296;2022-11-20T02:01:27;94453.77;;;24.70;46.77
6851;BME280;3464;42.728;23.296;2022-11-20T02:03:54;94466.59;;;23.97;47.95
6851;BME280;3464;42.728;23.296;2022-11-20T02:06:24;94449.76;;;24.28;47.85
6851;BME280;3464;42.728;23.296;2022-11-20T02:08:50;94466.15;;;24.05;48.34
6851;BME280;3464;42.728;23.296;2022-11-20T02:11:16;94455.23;;;24.88;46.60
6851;BME280;3464;42.728;23.296;2022-11-20T02:13:43;94457.72;;;24.90;46.43
6851;BME280;3464;42.728;23.296;2022-11-20T02:16:14;94469.69;;;24.98;46.33
6851;BME280;3464;42.728;23.296;2022-11-20T02:18:39;94461.50;;;24.55;46.92
6851;BME280;3464;42.728;23.296;2022-11-20T02:21:07;94461.74;;;24.36;47.83
6851;BME280;3464;42.728;23.296;2022-11-20T02:23:52;94465.83;;;24.33;47.87
6851;BME280;3464;42.728;23.296;2022-11-20T02:26:10;94481.20;;;24.48;47.50
6851;BME280;3464;42.728;23.296;2022-11-20T02:28:36;94468.24;;;24.43;47.24
6851;BME280;3464;42.728;23.296;2022-11-20T02:31:02;94472.73;;;24.69;46.89
6851;BME280;3464;42.728;23.296;2022-11-20T02:33:30;94457.21;;;24.48;47.11
6851;BME280;3464;42.728;23.296;2022-11-20T02:35:56;94476.59;;;24.46;47.47
6851;BME280;3464;42.728;23.296;2022-11-20T02:38:23;94481.48;;;24.87;46.79
6851;BME280;3464;42.728;23.296;2022-11-20T02:40:49;94479.66;;;24.38;47.67
6851;BME280;3464;42.728;23.296;2022-11-20T02:43:16;94493.55;;;24.28;48.02
6851;BME280;3464;42.728;23.296;2022-11-20T02:45:43;94491.86;;;24.49;47.77
6851;BME280;3464;42.728;23.296;2022-11-20T02:48:09;94497.31;;;24.52;47.97
6851;BME280;3464;42.728;23.296;2022-11-20T02:50:37;94502.02;;;24.14;48.66
6851;BME280;3464;42.728;23.296;2022-11-20T02:53:02;94496.02;;;23.83;49.48
6851;BME280;3464;42.728;23.296;2022-11-20T02:55:30;94510.56;;;24.52;48.63
6851;BME280;3464;42.728;23.296;2022-11-20T02:57:57;94510.59;;;24.37;48.59
6851;BME280;3464;42.728;23.296;2022-11-20T03:00:24;94515.55;;;23.86;49.81
6851;BME280;3464;42.728;23.296;2022-11-20T03:02:51;94525.97;;;24.30;49.38
6851;BME280;3464;42.728;23.296;2022-11-20T03:05:18;94513.77;;;24.41;49.12
6851;BME280;3464;42.728;23.296;2022-11-20T03:07:46;94510.17;;;24.29;49.22
6851;BME280;3464;42.728;23.296;2022-11-20T03:10:12;94527.75;;;24.44;49.31
6851;BME280;3464;42.728;23.296;2022-11-20T03:12:39;94530.11;;;24.02;50.18
6851;BME280;3464;42.728;23.296;2022-11-20T03:15:06;94544.91;;;23.82;50.89
6851;BME280;3464;42.728;23.296;2022-11-20T03:17:32;94536.60;;;24.02;50.73
6851;BME280;3464;42.728;23.296;2022-11-20T03:19:59;94537.69;;;23.98;50.54
6851;BME280;3464;42.728;23.296;2022-11-20T03:22:28;94530.27;;;24.45;49.77
6851;BME280;3464;42.728;23.296;2022-11-20T03:24:53;94534.78;;;24.34;49.82
6851;BME280;3464;42.728;23.296;2022-11-20T03:27:20;94535.48;;;24.29;50.04
6851;BME280;3464;42.728;23.296;2022-11-20T03:29:47;94545.91;;;24.19;50.38
6851;BME280;3464;42.728;23.296;2022-11-20T03:32:14;94549.25;;;24.50;49.75
6851;BME280;3464;42.728;23.296;2022-11-20T03:34:40;94550.61;;;24.12;50.61
6851;BME280;3464;42.728;23.296;2022-11-20T03:37:07;94559.25;;;24.56;49.59
6851;BME280;3464;42.728;23.296;2022-11-20T03:39:34;94556.75;;;24.39;49.80
6851;BME280;3464;42.728;23.296;2022-11-20T03:42:00;94566.96;;;24.41;49.52
6851;BME280;3464;42.728;23.296;2022-11-20T03:44:27;94566.19;;;24.01;50.00
6851;BME280;3464;42.728;23.296;2022-11-20T03:46:53;94560.52;;;24.03;50.19
6851;BME280;3464;42.728;23.296;2022-11-20T03:49:20;94558.05;;;24.54;49.40
6851;BME280;3464;42.728;23.296;2022-11-20T03:51:46;94560.44;;;24.50;49.22
6851;BME280;3464;42.728;23.296;2022-11-20T03:54:13;94562.30;;;24.33;49.42
6851;BME280;3464;42.728;23.296;2022-11-20T03:56:40;94547.53;;;23.89;50.10
6851;BME280;3464;42.728;23.296;2022-11-20T03:59:09;94554.73;;;23.75;50.76
6851;BME280;3464;42.728;23.296;2022-11-20T04:01:35;94553.06;;;23.82;50.63
6851;BME280;3464;42.728;23.296;2022-11-20T04:04:02;94548.56;;;24.10;50.02
6851;BME280;3464;42.728;23.296;2022-11-20T04:06:30;94561.01;;;24.25;49.82
6851;BME280;3464;42.728;23.296;2022-11-20T04:08:57;94564.89;;;24.40;49.44
6851;BME280;3464;42.728;23.296;2022-11-20T04:11:24;94556.23;;;24.56;49.08
6851;BME280;3464;42.728;23.296;2022-11-20T04:13:52;94555.08;;;24.16;49.73
6851;BME280;3464;42.728;23.296;2022-11-20T04:16:18;94554.52;;;24.41;49.23
6851;BME280;3464;42.728;23.296;2022-11-20T04:18:45;94541.85;;;23.99;49.68
6851;BME280;3464;42.728;23.296;2022-11-20T04:21:11;94528.81;;;23.63;49.52
6851;BME280;3464;42.728;23.296;2022-11-20T04:23:38;94527.23;;;23.69;49.38
6851;BME280;3464;42.728;23.296;2022-11-20T04:26:09;94525.64;;;23.98;48.56
6851;BME280;3464;42.728;23.296;2022-11-20T04:28:35;94544.45;;;23.75;49.05
6851;BME280;3464;42.728;23.296;2022-11-20T04:31:06;94543.70;;;23.81;49.21
6851;BME280;3464;42.728;23.296;2022-11-20T04:33:33;94550.30;;;23.86;48.88
6851;BME280;3464;42.728;23.296;2022-11-20T04:36:10;94541.23;;;24.41;47.98
6851;BME280;3464;42.728;23.296;2022-11-20T04:38:37;94552.75;;;24.04;48.49
6851;BME280;3464;42.728;23.296;2022-11-20T04:41:04;94547.33;;;23.20;50.00
6851;BME280;3464;42.728;23.296;2022-11-20T04:43:31;94545.69;;;23.19;50.36
6851;BME280;3464;42.728;23.296;2022-11-20T04:45:57;94544.17;;;23.64;49.54
6851;BME280;3464;42.728;23.296;2022-11-20T04:48:25;94537.31;;;23.88;48.88
6851;BME280;3464;42.728;23.296;2022-11-20T04:50:52;94547.59;;;23.88;48.60
6851;BME280;3464;42.728;23.296;2022-11-20T04:53:18;94542.75;;;23.51;49.79
6851;BME280;3464;42.728;23.296;2022-11-20T04:55:45;94524.69;;;23.52;50.09
6851;BME280;3464;42.728;23.296;2022-11-20T04:58:12;94526.30;;;23.54;49.39
6851;BME280;3464;42.728;23.296;2022-11-20T05:00:38;94516.91;;;23.46;50.01
6851;BME280;3464;42.728;23.296;2022-11-20T05:03:05;94509.81;;;23.81;48.54
6851;BME280;3464;42.728;23.296;2022-11-20T05:05:33;94519.86;;;23.95;48.33
6851;BME280;3464;42.728;23.296;2022-11-20T05:07:58;94519.55;;;24.00;48.36
6851;BME280;3464;42.728;23.296;2022-11-20T05:10:25;94500.73;;;24.30;47.65
6851;BME280;3464;42.728;23.296;2022-11-20T05:12:52;94508.22;;;24.26;47.86
6851;BME280;3464;42.728;23.296;2022-11-20T05:15:18;94501.13;;;24.15;47.93
6851;BME280;3464;42.728;23.296;2022-11-20T05:17:50;94503.60;;;24.31;47.58
6851;BME280;3464;42.728;23.296;2022-11-20T05:20:16;94505.13;;;24.42;47.50
6851;BME280;3464;42.728;23.296;2022-11-20T05:22:43;94521.70;;;24.07;47.77
6851;BME280;3464;42.728;23.296;2022-11-20T05:25:09;94529.28;;;24.25;47.77
6851;BME280;3464;42.728;23.296;2022-11-20T05:27:36;94510.84;;;24.33;47.43
6851;BME280;3464;42.728;23.296;2022-11-20T05:30:03;94510.83;;;24.18;47.45
6851;BME280;3464;42.728;23.296;2022-11-20T05:32:29;94505.16;;;23.97;47.80
6851;BME280;3464;42.728;23.296;2022-11-20T05:34:56;94512.33;;;24.29;47.43
6851;BME280;3464;42.728;23.296;2022-11-20T05:37:22;94513.45;;;24.24;47.48
6851;BME280;3464;42.728;23.296;2022-11-20T05:39:49;94510.00;;;24.40;46.94
6851;BME280;3464;42.728;23.296;2022-11-20T05:42:16;94526.67;;;24.55;46.68
6851;BME280;3464;42.728;23.296;2022-11-20T05:44:48;94529.89;;;24.67;46.44
6851;BME280;3464;42.728;23.296;2022-11-20T05:47:14;94536.43;;;24.27;47.22
6851;BME280;3464;42.728;23.296;2022-11-20T05:49:41;94537.81;;;24.63;46.86
6851;BME280;3464;42.728;23.296;2022-11-20T05:52:09;94540.39;;;24.40;47.84
6851;BME280;3464;42.728;23.296;2022-11-20T05:54:36;94519.02;;;24.32;48.42
6851;BME280;3464;42.728;23.296;2022-11-20T05:57:02;94525.50;;;24.16;49.33
6851;BME280;3464;42.728;23.296;2022-11-20T05:59:29;94523.56;;;24.35;49.50
6851;BME280;3464;42.728;23.296;2022-11-20T06:01:55;94519.95;;;23.77;50.50
6851;BME280;3464;42.728;23.296;2022-11-20T06:04:23;94532.35;;;24.08;49.87
6851;BME280;3464;42.728;23.296;2022-11-20T06:06:49;94527.01;;;23.97;49.81
6851;BME280;3464;42.728;23.296;2022-11-20T06:09:25;94538.61;;;23.72;50.52
6851;BME280;3464;42.728;23.296;2022-11-20T06:12:00;94551.19;;;23.85;50.04
6851;BME280;3464;42.728;23.296;2022-11-20T06:14:27;94542.13;;;23.39;50.87
6851;BME280;3464;42.728;23.296;2022-11-20T06:16:53;94530.80;;;23.26;51.25
6851;BME280;3464;42.728;23.296;2022-11-20T06:19:20;94541.22;;;23.55;50.93
6851;BME280;3464;42.728;23.296;2022-11-20T06:21:47;94521.22;;;23.92;50.18
6851;BME280;3464;42.728;23.296;2022-11-20T06:24:13;94516.50;;;24.16;49.66
6851;BME280;3464;42.728;23.296;2022-11-20T06:26:40;94519.34;;;24.26;49.50
6851;BME280;3464;42.728;23.296;2022-11-20T06:29:06;94535.70;;;23.94;50.17
6851;BME280;3464;42.728;23.296;2022-11-20T06:31:33;94525.00;;;23.95;49.84
6851;BME280;3464;42.728;23.296;2022-11-20T06:33:59;94528.02;;;23.13;51.11
6851;BME280;3464;42.728;23.296;2022-11-20T06:36:26;94533.09;;;23.87;49.88
6851;BME280;3464;42.728;23.296;2022-11-20T06:38:53;94533.53;;;24.03;49.67
6851;BME280;3464;42.728;23.296;2022-11-20T06:41:20;94534.50;;;24.24;49.52
6851;BME280;3464;42.728;23.296;2022-11-20T06:43:47;94533.65;;;23.53;50.72
6851;BME280;3464;42.728;23.296;2022-11-20T06:46:15;94556.73;;;23.86;50.14
6851;BME280;3464;42.728;23.296;2022-11-20T06:48:41;94561.66;;;23.65;50.52
6851;BME280;3464;42.728;23.296;2022-11-20T06:51:07;94564.10;;;23.84;50.02
6851;BME280;3464;42.728;23.296;2022-11-20T06:53:35;94552.48;;;24.09;49.45
6851;BME280;3464;42.728;23.296;2022-11-20T06:56:01;94541.94;;;24.06;49.47
6851;BME280;3464;42.728;23.296;2022-11-20T06:58:28;94547.67;;;24.33;49.36
6851;BME280;3464;42.728;23.296;2022-11-20T07:00:58;94547.90;;;24.22;49.16
6851;BME280;3464;42.728;23.296;2022-11-20T07:03:23;94544.16;;;24.50;48.74
6851;BME280;3464;42.728;23.296;2022-11-20T07:05:50;94553.27;;;23.94;49.79
6851;BME280;3464;42.728;23.296;2022-11-20T07:08:18;94571.03;;;23.83;50.14
6851;BME280;3464;42.728;23.296;2022-11-20T07:10:45;94584.63;;;23.92;50.62
6851;BME280;3464;42.728;23.296;2022-11-20T07:13:14;94586.59;;;24.04;50.71
6851;BME280;3464;42.728;23.296;2022-11-20T07:15:40;94589.59;;;23.88;50.95
6851;BME280;3464;42.728;23.296;2022-11-20T07:18:07;94592.28;;;23.78;51.17
6851;BME280;3464;42.728;23.296;2022-11-20T07:20:34;94590.17;;;24.01;50.65
6851;BME280;3464;42.728;23.296;2022-11-20T07:23:00;94584.32;;;23.67;51.62
6851;BME280;3464;42.728;23.296;2022-11-20T07:25:27;94586.16;;;23.56;51.73
6851;BME280;3464;42.728;23.296;2022-11-20T07:27:57;94577.67;;;23.55;51.84
6851;BME280;3464;42.728;23.296;2022-11-20T07:30:22;94585.91;;;23.77;51.07
6851;BME280;3464;42.728;23.296;2022-11-20T07:32:51;94585.39;;;24.02;50.46
6851;BME280;3464;42.728;23.296;2022-11-20T07:35:18;94587.15;;;23.61;51.14
6851;BME280;3464;42.728;23.296;2022-11-20T07:37:45;94590.42;;;23.88;50.86
6851;BME280;3464;42.728;23.296;2022-11-20T07:40:15;94598.69;;;24.10;50.08
6851;BME280;3464;42.728;23.296;2022-11-20T07:42:48;94597.95;;;24.15;49.60
6851;BME280;3464;42.728;23.296;2022-11-20T07:45:14;94602.17;;;23.93;50.39
6851;BME280;3464;42.728;23.296;2022-11-20T07:47:41;94593.89;;;23.55;51.11
6851;BME280;3464;42.728;23.296;2022-11-20T07:50:08;94586.39;;;23.35;51.17
6851;BME280;3464;42.728;23.296;2022-11-20T07:52:34;94583.09;;;23.08;52.32
6851;BME280;3464;42.728;23.296;2022-11-20T07:55:01;94578.30;;;23.17;52.17
6851;BME280;3464;42.728;23.296;2022-11-20T07:57:28;94591.94;;;23.10;51.80
6851;BME280;3464;42.728;23.296;2022-11-20T07:59:54;94589.04;;;23.34;51.58
6851;BME280;3464;42.728;23.296;2022-11-20T08:02:21;94570.70;;;23.33;51.62
6851;BME280;3464;42.728;23.296;2022-11-20T08:04:47;94581.36;;;23.33;51.21
6851;BME280;3464;42.728;23.296;2022-11-20T08:07:14;94588.78;;;23.47;51.45
6851;BME280;3464;42.728;23.296;2022-11-20T08:09:40;94605.21;;;23.44;52.15
6851;BME280;3464;42.728;23.296;2022-11-20T08:12:07;94598.42;;;23.43;52.49
6851;BME280;3464;42.728;23.296;2022-11-20T08:14:40;94589.95;;;23.33;52.87
6851;BME280;3464;42.728;23.296;2022-11-20T08:17:06;94578.56;;;23.78;52.16
6851;BME280;3464;42.728;23.296;2022-11-20T08:19:33;94588.57;;;23.17;53.61
6851;BME280;3464;42.728;23.296;2022-11-20T08:22:01;94598.19;;;23.22;53.77
6851;BME280;3464;42.728;23.296;2022-11-20T08:24:27;94585.16;;;23.42;53.29
6851;BME280;3464;42.728;23.296;2022-11-20T08:26:56;94584.80;;;23.41;53.52
6851;BME280;3464;42.728;23.296;2022-11-20T08:29:20;94592.12;;;23.81;52.67
6851;BME280;3464;42.728;23.296;2022-11-20T08:31:48;94584.50;;;23.47;50.29
6851;BME280;3464;42.728;23.296;2022-11-20T08:34:15;94585.73;;;23.56;49.62
6851;BME280;3464;42.728;23.296;2022-11-20T08:36:41;94607.08;;;23.73;49.79
6851;BME280;3464;42.728;23.296;2022-11-20T08:39:10;94595.59;;;23.87;51.24
6851;BME280;3464;42.728;23.296;2022-11-20T08:41:35;94600.13;;;24.00;51.01
6851;BME280;3464;42.728;23.296;2022-11-20T08:44:02;94610.17;;;23.71;52.00
6851;BME280;3464;42.728;23.296;2022-11-20T08:46:32;94604.98;;;23.97;51.99
6851;BME280;3464;42.728;23.296;2022-11-20T08:48:59;94633.19;;;24.22;51.50
6851;BME280;3464;42.728;23.296;2022-11-20T08:51:30;94644.20;;;23.59;53.39
6851;BME280;3464;42.728;23.296;2022-11-20T08:53:57;94640.08;;;23.89;54.07
6851;BME280;3464;42.728;23.296;2022-11-20T08:56:23;94636.97;;;23.34;56.66
6851;BME280;3464;42.728;23.296;2022-11-20T08:58:50;94633.83;;;24.02;56.01
6851;BME280;3464;42.728;23.296;2022-11-20T09:01:16;94622.04;;;23.82;57.41
6851;BME280;3464;42.728;23.296;2022-11-20T09:03:43;94626.42;;;23.56;58.82
6851;BME280;3464;42.728;23.296;2022-11-20T09:06:09;94642.20;;;23.57;59.17
6851;BME280;3464;42.728;23.296;2022-11-20T09:08:36;94644.30;;;23.82;58.76
6851;BME280;3464;42.728;23.296;2022-11-20T09:11:03;94641.22;;;23.68;59.35
6851;BME280;3464;42.728;23.296;2022-11-20T09:13:30;94649.14;;;23.13;61.28
6851;BME280;3464;42.728;23.296;2022-11-20T09:16:00;94646.94;;;22.71;62.56
6851;BME280;3464;42.728;23.296;2022-11-20T09:18:27;94649.66;;;22.68;62.63
6851;BME280;3464;42.728;23.296;2022-11-20T09:20:56;94653.98;;;22.93;62.08
6851;BME280;3464;42.728;23.296;2022-11-20T09:23:20;94645.11;;;22.65;63.05
6851;BME280;3464;42.728;23.296;2022-11-20T09:25:46;94648.92;;;23.00;62.98
6851;BME280;3464;42.728;23.296;2022-11-20T09:28:13;94637.74;;;22.76;63.79
6851;BME280;3464;42.728;23.296;2022-11-20T09:30:39;94638.89;;;22.69;64.35
6851;BME280;3464;42.728;23.296;2022-11-20T09:33:07;94637.39;;;22.82;64.46
6851;BME280;3464;42.728;23.296;2022-11-20T09:35:33;94636.06;;;23.10;63.65
6851;BME280;3464;42.728;23.296;2022-11-20T09:38:04;94629.25;;;23.00;63.60
6851;BME280;3464;42.728;23.296;2022-11-20T09:40:26;94619.63;;;22.96;64.17
6851;BME280;3464;42.728;23.296;2022-11-20T09:42:56;94608.98;;;23.37;63.03
6851;BME280;3464;42.728;23.296;2022-11-20T09:45:35;94605.47;;;23.21;62.27
6851;BME280;3464;42.728;23.296;2022-11-20T09:48:04;94613.92;;;23.57;61.50
6851;BME280;3464;42.728;23.296;2022-11-20T09:50:44;94613.19;;;23.47;61.36
6851;BME280;3464;42.728;23.296;2022-11-20T09:53:14;94608.72;;;23.34;62.03
6851;BME280;3464;42.728;23.296;2022-11-20T09:55:39;94592.15;;;23.23;61.46
6851;BME280;3464;42.728;23.296;2022-11-20T09:58:06;94594.24;;;23.07;60.43
6851;BME280;3464;42.728;23.296;2022-11-20T10:00:32;94598.41;;;22.58;63.02
6851;BME280;3464;42.728;23.296;2022-11-20T10:03:01;94602.10;;;22.25;65.52
6851;BME280;3464;42.728;23.296;2022-11-20T10:05:27;94602.74;;;22.38;64.81
6851;BME280;3464;42.728;23.296;2022-11-20T10:08:02;94584.95;;;22.44;64.52
6851;BME280;3464;42.728;23.296;2022-11-20T10:10:33;94583.77;;;22.15;64.66
6851;BME280;3464;42.728;23.296;2022-11-20T10:13:13;94574.92;;;21.85;65.08
6851;BME280;3464;42.728;23.296;2022-11-20T10:18:49;94567.20;;;22.58;62.43
6851;BME280;3464;42.728;23.296;2022-11-20T10:21:19;94555.20;;;22.84;62.21
6851;BME280;3464;42.728;23.296;2022-11-20T10:23:52;94560.09;;;22.19;64.44
6851;BME280;3464;42.728;23.296;2022-11-20T10:26:26;94570.44;;;22.53;63.69
6851;BME280;3464;42.728;23.296;2022-11-20T10:31:37;94552.23;;;22.23;63.88
6851;BME280;3464;42.728;23.296;2022-11-20T10:34:05;94580.02;;;22.40;63.45
6851;BME280;3464;42.728;23.296;2022-11-20T10:36:33;94573.81;;;22.36;63.19
6851;BME280;3464;42.728;23.296;2022-11-20T10:39:00;94577.70;;;22.61;62.33
6851;BME280;3464;42.728;23.296;2022-11-20T10:41:27;94583.26;;;22.61;62.39
6851;BME280;3464;42.728;23.296;2022-11-20T10:43:59;94591.70;;;22.81;62.55
6851;BME280;3464;42.728;23.296;2022-11-20T10:46:22;94594.12;;;22.40;64.29
6851;BME280;3464;42.728;23.296;2022-11-20T10:48:49;94584.91;;;22.18;64.84
6851;BME280;3464;42.728;23.296;2022-11-20T10:51:27;94570.20;;;22.22;65.25
6851;BME280;3464;42.728;23.296;2022-11-20T10:54:23;94560.45;;;22.56;64.95
6851;BME280;3464;42.728;23.296;2022-11-20T10:56:47;94565.63;;;22.72;64.56
6851;BME280;3464;42.728;23.296;2022-11-20T11:00:07;94585.84;;;22.26;66.04
6851;BME280;3464;42.728;23.296;2022-11-20T11:02:22;94595.17;;;21.62;66.06
6851;BME280;3464;42.728;23.296;2022-11-20T11:04:49;94598.25;;;21.79;64.78
6851;BME280;3464;42.728;23.296;2022-11-20T11:07:19;94604.94;;;21.15;65.70
6851;BME280;3464;42.728;23.296;2022-11-20T11:09:44;94630.47;;;21.06;65.87
6851;BME280;3464;42.728;23.296;2022-11-20T11:12:10;94621.61;;;20.20;70.70
6851;BME280;3464;42.728;23.296;2022-11-20T11:14:43;94609.29;;;19.62;70.90
6851;BME280;3464;42.728;23.296;2022-11-20T11:20:13;94602.30;;;18.84;74.61
6851;BME280;3464;42.728;23.296;2022-11-20T11:22:34;94588.61;;;18.98;71.94
6851;BME280;3464;42.728;23.296;2022-11-20T11:24:59;94590.20;;;18.64;72.75
6851;BME280;3464;42.728;23.296;2022-11-20T11:27:26;94579.63;;;18.50;72.90
6851;BME280;3464;42.728;23.296;2022-11-20T11:30:01;94578.91;;;19.08;72.64
6851;BME280;3464;42.728;23.296;2022-11-20T11:32:19;94559.27;;;18.86;73.01
6851;BME280;3464;42.728;23.296;2022-11-20T11:34:59;94546.39;;;18.65;74.55
6851;BME280;3464;42.728;23.296;2022-11-20T11:37:25;94552.75;;;18.41;74.42
6851;BME280;3464;42.728;23.296;2022-11-20T11:39:52;94557.30;;;18.57;75.41
6851;BME280;3464;42.728;23.296;2022-11-20T11:42:18;94565.06;;;18.91;74.82
6851;BME280;3464;42.728;23.296;2022-11-20T11:44:46;94585.92;;;18.78;76.35
6851;BME280;3464;42.728;23.296;2022-11-20T11:47:29;94584.05;;;19.07;75.46
6851;BME280;3464;42.728;23.296;2022-11-20T11:50:23;94582.13;;;19.38;73.75
6851;BME280;3464;42.728;23.296;2022-11-20T11:53:13;94577.93;;;19.00;72.75
6851;BME280;3464;42.728;23.296;2022-11-20T11:55:43;94587.97;;;19.53;71.37
6851;BME280;3464;42.728;23.296;2022-11-20T12:00:56;94602.00;;;19.53;70.03
6851;BME280;3464;42.728;23.296;2022-11-20T12:03:29;94616.68;;;19.58;69.57
6851;BME280;3464;42.728;23.296;2022-11-20T12:05:57;94615.13;;;19.66;69.55
6851;BME280;3464;42.728;23.296;2022-11-20T12:08:30;94614.14;;;19.46;69.89
6851;BME280;3464;42.728;23.296;2022-11-20T12:10:59;94622.23;;;19.81;69.42
6851;BME280;3464;42.728;23.296;2022-11-20T12:13:39;94613.09;;;20.08;67.21
6851;BME280;3464;42.728;23.296;2022-11-20T12:16:03;94608.52;;;20.17;65.74
6851;BME280;3464;42.728;23.296;2022-11-20T12:18:30;94602.53;;;20.28;65.20
6851;BME280;3464;42.728;23.296;2022-11-20T12:21:15;94600.55;;;19.69;66.46
6851;BME280;3464;42.728;23.296;2022-11-20T12:24:06;94603.33;;;20.51;64.93
6851;BME280;3464;42.728;23.296;2022-11-20T12:35:24;94586.34;;;20.80;63.56
6851;BME280;3464;42.728;23.296;2022-11-20T12:37:53;94580.92;;;20.25;64.59
6851;BME280;3464;42.728;23.296;2022-11-20T12:40:28;94569.78;;;20.27;65.39
6851;BME280;3464;42.728;23.296;2022-11-20T12:42:57;94574.14;;;20.14;64.43
6851;BME280;3464;42.728;23.296;2022-11-20T12:45:48;94579.53;;;19.95;64.36
6851;BME280;3464;42.728;23.296;2022-11-20T12:50:49;94574.56;;;19.58;68.16
6851;BME280;3464;42.728;23.296;2022-11-20T12:56:41;94569.16;;;20.32;65.98
6851;BME280;3464;42.728;23.296;2022-11-20T13:01:32;94574.17;;;19.90;65.87
6851;BME280;3464;42.728;23.296;2022-11-20T13:04:07;94591.94;;;19.93;66.58
6851;BME280;3464;42.728;23.296;2022-11-20T13:06:29;94584.75;;;19.23;68.78
6851;BME280;3464;42.728;23.296;2022-11-20T13:08:56;94556.34;;;18.61;71.77
6851;BME280;3464;42.728;23.296;2022-11-20T13:11:32;94553.48;;;18.57;73.00
6851;BME280;3464;42.728;23.296;2022-11-20T13:14:19;94549.48;;;18.74;73.41
6851;BME280;3464;42.728;23.296;2022-11-20T13:16:50;94568.36;;;18.56;73.82
6851;BME280;3464;42.728;23.296;2022-11-20T13:19:15;94569.78;;;18.77;73.08
6851;BME280;3464;42.728;23.296;2022-11-20T13:21:43;94580.97;;;18.98;70.45
6851;BME280;3464;42.728;23.296;2022-11-20T13:24:26;94581.98;;;19.76;68.07
6851;BME280;3464;42.728;23.296;2022-11-20T13:27:04;94582.48;;;20.19;67.46
6851;BME280;3464;42.728;23.296;2022-11-20T13:29:30;94574.72;;;20.82;65.75
6851;BME280;3464;42.728;23.296;2022-11-20T13:32:20;94566.77;;;20.18;64.95
6851;BME280;3464;42.728;23.296;2022-11-20T13:34:54;94553.94;;;20.19;65.66
6851;BME280;3464;42.728;23.296;2022-11-20T13:37:29;94556.95;;;20.39;64.44
6851;BME280;3464;42.728;23.296;2022-11-20T13:40:04;94558.27;;;20.38;65.87
6851;BME280;3464;42.728;23.296;2022-11-20T13:42:24;94541.53;;;20.62;65.50
6851;BME280;3464;42.728;23.296;2022-11-20T13:44:50;94553.83;;;20.83;64.92